sensor_id;sensor_type;location;lat;lon;timestamp;P1;durP1;ratioP1;P2;durP2;ratioP2
12950;SDS011;6540;50.858;7.232;2022-08-19T00:02:23;19.13;;;17.10;;
12950;SDS011;6540;50.858;7.232;2022-08-19T00:04:48;18.90;;;16.43;;
12950;SDS011;6540;50.858;7.232;2022-08-19T00:07:17;20.03;;;17.30;;
12950;SDS011;6540;50.858;7.232;2022-08-19T00:09:44;18.30;;;16.40;;
12950;SDS011;6540;50.858;7.232;2022-08-19T00:12:10;18.80;;;16.77;;
12950;SDS011;6540;50.858;7.232;2022-08-19T00:14:36;20.87;;;17.43;;
12950;SDS011;6540;50.858;7.232;2022-08-19T00:17:03;18.40;;;16.40;;
12950;SDS011;6540;50.858;7.232;2022-08-19T00:19:30;18.23;;;16.40;;
12950;SDS011;6540;50.858;7.232;2022-08-19T00:21:56;18.60;;;16.60;;
12950;SDS011;6540;50.858;7.232;2022-08-19T00:24:21;20.30;;;17.83;;
12950;SDS011;6540;50.858;7.232;2022-08-19T00:26:47;22.50;;;18.03;;
12950;SDS011;6540;50.858;7.232;2022-08-19T00:29:14;20.67;;;18.03;;
12950;SDS011;6540;50.858;7.232;2022-08-19T00:31:41;22.53;;;18.63;;
12950;SDS011;6540;50.858;7.232;2022-08-19T00:34:07;19.80;;;17.70;;
12950;SDS011;6540;50.858;7.232;2022-08-19T00:36:33;18.83;;;16.83;;
12950;SDS011;6540;50.858;7.232;2022-08-19T00:38:59;18.97;;;16.97;;
12950;SDS011;6540;50.858;7.232;2022-08-19T00:41:26;19.80;;;17.37;;
12950;SDS011;6540;50.858;7.232;2022-08-19T00:46:29;19.03;;;17.00;;
12950;SDS011;6540;50.858;7.232;2022-08-19T00:48:56;23.07;;;16.60;;
12950;SDS011;6540;50.858;7.232;2022-08-19T00:51:23;19.10;;;17.10;;
12950;SDS011;6540;50.858;7.232;2022-08-19T00:53:51;18.80;;;16.70;;
12950;SDS011;6540;50.858;7.232;2022-08-19T00:56:17;19.30;;;16.87;;
12950;SDS011;6540;50.858;7.232;2022-08-19T00:58:43;18.33;;;15.90;;
12950;SDS011;6540;50.858;7.232;2022-08-19T01:01:09;19.47;;;17.20;;
12950;SDS011;6540;50.858;7.232;2022-08-19T01:03:34;18.70;;;16.60;;
12950;SDS011;6540;50.858;7.232;2022-08-19T01:06:00;19.40;;;16.90;;
12950;SDS011;6540;50.858;7.232;2022-08-19T01:08:25;23.67;;;16.63;;
12950;SDS011;6540;50.858;7.232;2022-08-19T01:10:56;20.53;;;16.60;;
12950;SDS011;6540;50.858;7.232;2022-08-19T01:13:25;18.73;;;16.73;;
12950;SDS011;6540;50.858;7.232;2022-08-19T01:16:11;19.27;;;16.20;;
12950;SDS011;6540;50.858;7.232;2022-08-19T01:18:39;19.27;;;17.27;;
12950;SDS011;6540;50.858;7.232;2022-08-19T01:21:10;19.33;;;17.27;;
12950;SDS011;6540;50.858;7.232;2022-08-19T01:23:44;18.90;;;16.77;;
12950;SDS011;6540;50.858;7.232;2022-08-19T01:26:11;22.37;;;16.63;;
12950;SDS011;6540;50.858;7.232;2022-08-19T01:28:42;19.57;;;17.07;;
12950;SDS011;6540;50.858;7.232;2022-08-19T01:31:12;19.37;;;17.40;;
12950;SDS011;6540;50.858;7.232;2022-08-19T01:33:42;20.17;;;16.03;;
12950;SDS011;6540;50.858;7.232;2022-08-19T01:36:12;19.70;;;17.60;;
12950;SDS011;6540;50.858;7.232;2022-08-19T01:38:40;20.33;;;18.17;;
12950;SDS011;6540;50.858;7.232;2022-08-19T01:41:08;25.50;;;18.50;;
12950;SDS011;6540;50.858;7.232;2022-08-19T01:43:33;19.67;;;17.57;;
12950;SDS011;6540;50.858;7.232;2022-08-19T01:45:59;20.13;;;17.83;;
12950;SDS011;6540;50.858;7.232;2022-08-19T01:48:25;22.33;;;17.57;;
12950;SDS011;6540;50.858;7.232;2022-08-19T01:50:51;19.87;;;17.73;;
12950;SDS011;6540;50.858;7.232;2022-08-19T01:53:17;21.70;;;19.43;;
12950;SDS011;6540;50.858;7.232;2022-08-19T01:55:42;19.40;;;17.43;;
12950;SDS011;6540;50.858;7.232;2022-08-19T01:58:11;20.53;;;18.33;;
12950;SDS011;6540;50.858;7.232;2022-08-19T02:00:39;21.30;;;18.33;;
12950;SDS011;6540;50.858;7.232;2022-08-19T02:03:05;23.17;;;18.90;;
12950;SDS011;6540;50.858;7.232;2022-08-19T02:05:31;20.40;;;18.27;;
12950;SDS011;6540;50.858;7.232;2022-08-19T02:07:57;19.77;;;17.20;;
12950;SDS011;6540;50.858;7.232;2022-08-19T02:10:23;22.40;;;19.03;;
12950;SDS011;6540;50.858;7.232;2022-08-19T02:12:49;20.47;;;17.33;;
12950;SDS011;6540;50.858;7.232;2022-08-19T02:15:16;19.40;;;17.40;;
12950;SDS011;6540;50.858;7.232;2022-08-19T02:17:43;18.37;;;16.37;;
12950;SDS011;6540;50.858;7.232;2022-08-19T02:20:09;20.67;;;18.47;;
12950;SDS011;6540;50.858;7.232;2022-08-19T02:22:35;20.13;;;17.90;;
12950;SDS011;6540;50.858;7.232;2022-08-19T02:25:00;19.87;;;17.77;;
12950;SDS011;6540;50.858;7.232;2022-08-19T02:27:27;21.67;;;17.27;;
12950;SDS011;6540;50.858;7.232;2022-08-19T02:29:52;20.57;;;18.23;;
12950;SDS011;6540;50.858;7.232;2022-08-19T02:32:18;21.60;;;19.40;;
12950;SDS011;6540;50.858;7.232;2022-08-19T02:34:47;22.67;;;19.50;;
12950;SDS011;6540;50.858;7.232;2022-08-19T02:37:12;22.10;;;19.73;;
12950;SDS011;6540;50.858;7.232;2022-08-19T02:40:02;23.60;;;18.87;;
12950;SDS011;6540;50.858;7.232;2022-08-19T02:42:27;21.37;;;19.07;;
12950;SDS011;6540;50.858;7.232;2022-08-19T02:44:54;20.47;;;18.27;;
12950;SDS011;6540;50.858;7.232;2022-08-19T02:47:21;20.50;;;17.93;;
12950;SDS011;6540;50.858;7.232;2022-08-19T02:49:46;21.57;;;18.83;;
12950;SDS011;6540;50.858;7.232;2022-08-19T02:52:14;21.47;;;19.00;;
12950;SDS011;6540;50.858;7.232;2022-08-19T02:54:39;19.47;;;17.40;;
12950;SDS011;6540;50.858;7.232;2022-08-19T02:57:05;18.83;;;16.67;;
12950;SDS011;6540;50.858;7.232;2022-08-19T02:59:31;21.17;;;18.67;;
12950;SDS011;6540;50.858;7.232;2022-08-19T03:01:57;20.47;;;18.27;;
12950;SDS011;6540;50.858;7.232;2022-08-19T03:04:22;20.00;;;17.57;;
12950;SDS011;6540;50.858;7.232;2022-08-19T03:06:49;19.80;;;17.67;;
12950;SDS011;6540;50.858;7.232;2022-08-19T03:09:15;21.03;;;18.57;;
12950;SDS011;6540;50.858;7.232;2022-08-19T03:11:41;20.73;;;18.23;;
12950;SDS011;6540;50.858;7.232;2022-08-19T03:14:07;22.20;;;19.43;;
12950;SDS011;6540;50.858;7.232;2022-08-19T03:16:35;20.17;;;17.90;;
12950;SDS011;6540;50.858;7.232;2022-08-19T03:19:06;20.90;;;17.93;;
12950;SDS011;6540;50.858;7.232;2022-08-19T03:21:32;22.10;;;18.73;;
12950;SDS011;6540;50.858;7.232;2022-08-19T03:24:01;22.00;;;18.00;;
12950;SDS011;6540;50.858;7.232;2022-08-19T03:26:28;20.83;;;18.63;;
12950;SDS011;6540;50.858;7.232;2022-08-19T03:28:54;23.17;;;19.33;;
12950;SDS011;6540;50.858;7.232;2022-08-19T03:31:20;20.60;;;18.27;;
12950;SDS011;6540;50.858;7.232;2022-08-19T03:33:50;23.87;;;18.73;;
12950;SDS011;6540;50.858;7.232;2022-08-19T03:36:23;20.93;;;18.63;;
12950;SDS011;6540;50.858;7.232;2022-08-19T03:38:52;21.47;;;18.30;;
12950;SDS011;6540;50.858;7.232;2022-08-19T03:41:24;22.97;;;19.93;;
12950;SDS011;6540;50.858;7.232;2022-08-19T03:43:52;22.40;;;19.93;;
12950;SDS011;6540;50.858;7.232;2022-08-19T03:46:20;26.13;;;20.20;;
12950;SDS011;6540;50.858;7.232;2022-08-19T03:48:48;23.63;;;20.17;;
12950;SDS011;6540;50.858;7.232;2022-08-19T03:51:26;21.43;;;19.17;;
12950;SDS011;6540;50.858;7.232;2022-08-19T03:53:55;20.77;;;18.23;;
12950;SDS011;6540;50.858;7.232;2022-08-19T03:56:23;20.30;;;18.13;;
12950;SDS011;6540;50.858;7.232;2022-08-19T03:58:51;20.47;;;18.27;;
12950;SDS011;6540;50.858;7.232;2022-08-19T04:01:18;20.60;;;18.40;;
12950;SDS011;6540;50.858;7.232;2022-08-19T04:03:46;24.73;;;19.30;;
12950;SDS011;6540;50.858;7.232;2022-08-19T04:06:16;21.40;;;17.40;;
12950;SDS011;6540;50.858;7.232;2022-08-19T04:08:45;21.10;;;17.40;;
12950;SDS011;6540;50.858;7.232;2022-08-19T04:11:15;20.73;;;17.77;;
12950;SDS011;6540;50.858;7.232;2022-08-19T04:13:41;21.87;;;18.83;;
12950;SDS011;6540;50.858;7.232;2022-08-19T04:16:09;21.07;;;17.93;;
12950;SDS011;6540;50.858;7.232;2022-08-19T04:18:35;21.97;;;18.00;;
12950;SDS011;6540;50.858;7.232;2022-08-19T04:21:02;22.47;;;18.70;;
12950;SDS011;6540;50.858;7.232;2022-08-19T04:23:28;20.77;;;18.57;;
12950;SDS011;6540;50.858;7.232;2022-08-19T04:25:54;23.20;;;18.63;;
12950;SDS011;6540;50.858;7.232;2022-08-19T04:28:20;22.20;;;18.43;;
12950;SDS011;6540;50.858;7.232;2022-08-19T04:30:47;22.07;;;19.07;;
12950;SDS011;6540;50.858;7.232;2022-08-19T04:33:15;22.27;;;19.13;;
12950;SDS011;6540;50.858;7.232;2022-08-19T04:35:43;26.53;;;19.63;;
12950;SDS011;6540;50.858;7.232;2022-08-19T04:38:12;21.20;;;18.77;;
12950;SDS011;6540;50.858;7.232;2022-08-19T04:40:42;20.33;;;18.33;;
12950;SDS011;6540;50.858;7.232;2022-08-19T04:43:28;21.50;;;19.23;;
12950;SDS011;6540;50.858;7.232;2022-08-19T04:45:54;23.33;;;18.87;;
12950;SDS011;6540;50.858;7.232;2022-08-19T04:48:19;23.27;;;17.73;;
12950;SDS011;6540;50.858;7.232;2022-08-19T04:50:50;23.07;;;19.73;;
12950;SDS011;6540;50.858;7.232;2022-08-19T04:53:18;21.23;;;18.93;;
12950;SDS011;6540;50.858;7.232;2022-08-19T04:55:43;21.43;;;18.47;;
12950;SDS011;6540;50.858;7.232;2022-08-19T04:58:09;20.87;;;18.67;;
12950;SDS011;6540;50.858;7.232;2022-08-19T05:00:37;23.37;;;18.37;;
12950;SDS011;6540;50.858;7.232;2022-08-19T05:03:03;21.90;;;18.83;;
12950;SDS011;6540;50.858;7.232;2022-08-19T05:05:28;20.57;;;18.13;;
12950;SDS011;6540;50.858;7.232;2022-08-19T05:07:54;20.73;;;17.73;;
12950;SDS011;6540;50.858;7.232;2022-08-19T05:10:20;22.90;;;18.13;;
12950;SDS011;6540;50.858;7.232;2022-08-19T05:12:46;21.20;;;18.77;;
12950;SDS011;6540;50.858;7.232;2022-08-19T05:15:11;20.13;;;17.73;;
12950;SDS011;6540;50.858;7.232;2022-08-19T05:17:37;21.17;;;18.83;;
12950;SDS011;6540;50.858;7.232;2022-08-19T05:20:03;21.17;;;18.87;;
12950;SDS011;6540;50.858;7.232;2022-08-19T05:22:48;20.97;;;18.70;;
12950;SDS011;6540;50.858;7.232;2022-08-19T05:25:15;21.70;;;18.90;;
12950;SDS011;6540;50.858;7.232;2022-08-19T05:27:44;20.73;;;17.03;;
12950;SDS011;6540;50.858;7.232;2022-08-19T05:30:10;22.47;;;18.90;;
12950;SDS011;6540;50.858;7.232;2022-08-19T05:32:36;20.63;;;18.43;;
12950;SDS011;6540;50.858;7.232;2022-08-19T05:35:02;21.03;;;18.03;;
12950;SDS011;6540;50.858;7.232;2022-08-19T05:37:28;21.73;;;19.03;;
12950;SDS011;6540;50.858;7.232;2022-08-19T05:39:54;20.00;;;17.90;;
12950;SDS011;6540;50.858;7.232;2022-08-19T05:42:19;20.73;;;18.50;;
12950;SDS011;6540;50.858;7.232;2022-08-19T05:44:46;20.90;;;18.37;;
12950;SDS011;6540;50.858;7.232;2022-08-19T05:47:13;22.17;;;18.70;;
12950;SDS011;6540;50.858;7.232;2022-08-19T05:49:40;20.97;;;18.13;;
12950;SDS011;6540;50.858;7.232;2022-08-19T05:52:07;22.03;;;19.63;;
12950;SDS011;6540;50.858;7.232;2022-08-19T05:54:36;24.23;;;19.43;;
12950;SDS011;6540;50.858;7.232;2022-08-19T05:57:05;21.70;;;19.40;;
12950;SDS011;6540;50.858;7.232;2022-08-19T05:59:30;21.97;;;19.13;;
12950;SDS011;6540;50.858;7.232;2022-08-19T06:01:56;21.37;;;18.87;;
12950;SDS011;6540;50.858;7.232;2022-08-19T06:04:22;20.03;;;17.80;;
12950;SDS011;6540;50.858;7.232;2022-08-19T06:06:49;24.60;;;18.97;;
12950;SDS011;6540;50.858;7.232;2022-08-19T06:09:17;23.70;;;19.40;;
12950;SDS011;6540;50.858;7.232;2022-08-19T06:11:50;21.23;;;18.93;;
12950;SDS011;6540;50.858;7.232;2022-08-19T06:14:23;20.63;;;18.47;;
12950;SDS011;6540;50.858;7.232;2022-08-19T06:16:50;20.97;;;18.53;;
12950;SDS011;6540;50.858;7.232;2022-08-19T06:19:17;22.17;;;19.80;;
12950;SDS011;6540;50.858;7.232;2022-08-19T06:21:47;21.27;;;18.93;;
12950;SDS011;6540;50.858;7.232;2022-08-19T06:24:14;24.47;;;18.93;;
12950;SDS011;6540;50.858;7.232;2022-08-19T06:26:42;20.63;;;17.87;;
12950;SDS011;6540;50.858;7.232;2022-08-19T06:29:09;23.53;;;19.73;;
12950;SDS011;6540;50.858;7.232;2022-08-19T06:31:36;22.73;;;19.73;;
12950;SDS011;6540;50.858;7.232;2022-08-19T06:34:05;23.23;;;18.97;;
12950;SDS011;6540;50.858;7.232;2022-08-19T06:36:35;21.70;;;19.47;;
12950;SDS011;6540;50.858;7.232;2022-08-19T06:39:14;20.93;;;18.67;;
12950;SDS011;6540;50.858;7.232;2022-08-19T06:41:44;22.37;;;19.10;;
12950;SDS011;6540;50.858;7.232;2022-08-19T06:44:12;21.50;;;18.80;;
12950;SDS011;6540;50.858;7.232;2022-08-19T06:46:38;20.57;;;18.37;;
12950;SDS011;6540;50.858;7.232;2022-08-19T06:49:04;21.40;;;18.67;;
12950;SDS011;6540;50.858;7.232;2022-08-19T06:51:34;21.07;;;18.80;;
12950;SDS011;6540;50.858;7.232;2022-08-19T06:53:59;19.57;;;17.53;;
12950;SDS011;6540;50.858;7.232;2022-08-19T06:56:26;20.20;;;18.00;;
12950;SDS011;6540;50.858;7.232;2022-08-19T06:59:03;21.80;;;17.77;;
12950;SDS011;6540;50.858;7.232;2022-08-19T07:01:33;23.87;;;20.43;;
12950;SDS011;6540;50.858;7.232;2022-08-19T07:04:02;23.27;;;19.87;;
12950;SDS011;6540;50.858;7.232;2022-08-19T07:06:28;23.00;;;17.33;;
12950;SDS011;6540;50.858;7.232;2022-08-19T07:08:56;21.50;;;19.17;;
12950;SDS011;6540;50.858;7.232;2022-08-19T07:11:23;21.20;;;18.90;;
12950;SDS011;6540;50.858;7.232;2022-08-19T07:13:48;21.93;;;18.23;;
12950;SDS011;6540;50.858;7.232;2022-08-19T07:16:15;20.27;;;17.43;;
12950;SDS011;6540;50.858;7.232;2022-08-19T07:18:44;21.50;;;18.27;;
12950;SDS011;6540;50.858;7.232;2022-08-19T07:21:16;23.10;;;20.50;;
12950;SDS011;6540;50.858;7.232;2022-08-19T07:23:44;22.30;;;19.90;;
12950;SDS011;6540;50.858;7.232;2022-08-19T07:26:19;23.27;;;20.63;;
12950;SDS011;6540;50.858;7.232;2022-08-19T07:28:47;22.60;;;20.27;;
12950;SDS011;6540;50.858;7.232;2022-08-19T07:31:14;21.97;;;19.67;;
12950;SDS011;6540;50.858;7.232;2022-08-19T07:33:43;26.87;;;19.87;;
12950;SDS011;6540;50.858;7.232;2022-08-19T07:36:10;23.40;;;21.00;;
12950;SDS011;6540;50.858;7.232;2022-08-19T07:38:38;24.17;;;21.67;;
12950;SDS011;6540;50.858;7.232;2022-08-19T07:41:06;23.37;;;20.87;;
12950;SDS011;6540;50.858;7.232;2022-08-19T07:43:34;24.17;;;20.00;;
12950;SDS011;6540;50.858;7.232;2022-08-19T07:45:59;23.63;;;21.10;;
12950;SDS011;6540;50.858;7.232;2022-08-19T07:48:25;23.77;;;20.00;;
12950;SDS011;6540;50.858;7.232;2022-08-19T07:50:53;25.77;;;22.57;;
12950;SDS011;6540;50.858;7.232;2022-08-19T07:53:20;25.67;;;22.83;;
12950;SDS011;6540;50.858;7.232;2022-08-19T07:55:47;21.50;;;19.10;;
12950;SDS011;6540;50.858;7.232;2022-08-19T07:58:15;23.03;;;20.60;;
12950;SDS011;6540;50.858;7.232;2022-08-19T08:00:44;24.23;;;21.60;;
12950;SDS011;6540;50.858;7.232;2022-08-19T08:03:12;25.60;;;20.20;;
12950;SDS011;6540;50.858;7.232;2022-08-19T08:05:38;26.60;;;22.20;;
12950;SDS011;6540;50.858;7.232;2022-08-19T08:08:23;30.87;;;22.33;;
12950;SDS011;6540;50.858;7.232;2022-08-19T08:11:07;28.33;;;21.70;;
12950;SDS011;6540;50.858;7.232;2022-08-19T08:13:33;25.50;;;20.80;;
12950;SDS011;6540;50.858;7.232;2022-08-19T08:16:00;28.80;;;22.47;;
12950;SDS011;6540;50.858;7.232;2022-08-19T08:18:26;26.77;;;21.73;;
12950;SDS011;6540;50.858;7.232;2022-08-19T08:20:52;23.03;;;19.97;;
12950;SDS011;6540;50.858;7.232;2022-08-19T08:23:17;27.70;;;21.83;;
12950;SDS011;6540;50.858;7.232;2022-08-19T08:25:54;27.33;;;21.63;;
12950;SDS011;6540;50.858;7.232;2022-08-19T08:28:22;30.70;;;24.77;;
12950;SDS011;6540;50.858;7.232;2022-08-19T08:30:48;29.53;;;22.43;;
12950;SDS011;6540;50.858;7.232;2022-08-19T08:33:22;27.90;;;23.70;;
12950;SDS011;6540;50.858;7.232;2022-08-19T08:35:48;27.23;;;22.53;;
12950;SDS011;6540;50.858;7.232;2022-08-19T08:38:13;26.40;;;20.73;;
12950;SDS011;6540;50.858;7.232;2022-08-19T08:40:50;22.33;;;19.93;;
12950;SDS011;6540;50.858;7.232;2022-08-19T08:46:00;24.17;;;19.13;;
12950;SDS011;6540;50.858;7.232;2022-08-19T08:51:00;21.87;;;18.07;;
12950;SDS011;6540;50.858;7.232;2022-08-19T08:53:30;22.53;;;18.80;;
12950;SDS011;6540;50.858;7.232;2022-08-19T08:55:57;20.60;;;18.37;;
12950;SDS011;6540;50.858;7.232;2022-08-19T08:58:29;19.90;;;14.93;;
12950;SDS011;6540;50.858;7.232;2022-08-19T09:01:08;18.43;;;11.53;;
12950;SDS011;6540;50.858;7.232;2022-08-19T09:03:36;18.27;;;13.10;;
12950;SDS011;6540;50.858;7.232;2022-08-19T09:06:04;13.53;;;11.07;;
12950;SDS011;6540;50.858;7.232;2022-08-19T09:08:40;15.07;;;12.03;;
12950;SDS011;6540;50.858;7.232;2022-08-19T09:11:15;15.97;;;12.17;;
12950;SDS011;6540;50.858;7.232;2022-08-19T09:16:41;15.17;;;12.17;;
12950;SDS011;6540;50.858;7.232;2022-08-19T09:19:07;15.83;;;11.53;;
12950;SDS011;6540;50.858;7.232;2022-08-19T09:21:33;15.17;;;11.73;;
12950;SDS011;6540;50.858;7.232;2022-08-19T09:24:00;16.70;;;11.47;;
12950;SDS011;6540;50.858;7.232;2022-08-19T09:26:27;14.67;;;11.83;;
12950;SDS011;6540;50.858;7.232;2022-08-19T09:28:52;11.97;;;10.17;;
12950;SDS011;6540;50.858;7.232;2022-08-19T09:31:23;12.47;;;10.57;;
12950;SDS011;6540;50.858;7.232;2022-08-19T09:33:51;10.17;;;9.00;;
12950;SDS011;6540;50.858;7.232;2022-08-19T09:36:19;11.47;;;8.97;;
12950;SDS011;6540;50.858;7.232;2022-08-19T09:38:47;12.37;;;10.57;;
12950;SDS011;6540;50.858;7.232;2022-08-19T09:41:14;12.70;;;9.87;;
12950;SDS011;6540;50.858;7.232;2022-08-19T09:43:43;21.47;;;14.73;;
12950;SDS011;6540;50.858;7.232;2022-08-19T09:46:11;15.77;;;13.13;;
12950;SDS011;6540;50.858;7.232;2022-08-19T09:48:37;15.33;;;11.83;;
12950;SDS011;6540;50.858;7.232;2022-08-19T09:51:10;17.30;;;11.57;;
12950;SDS011;6540;50.858;7.232;2022-08-19T09:53:40;19.00;;;12.97;;
12950;SDS011;6540;50.858;7.232;2022-08-19T09:56:06;18.67;;;14.27;;
12950;SDS011;6540;50.858;7.232;2022-08-19T09:58:32;18.83;;;15.60;;
12950;SDS011;6540;50.858;7.232;2022-08-19T10:00:59;19.80;;;13.67;;
12950;SDS011;6540;50.858;7.232;2022-08-19T10:03:26;17.97;;;12.53;;
12950;SDS011;6540;50.858;7.232;2022-08-19T10:05:53;12.77;;;11.03;;
12950;SDS011;6540;50.858;7.232;2022-08-19T10:08:22;19.13;;;15.70;;
12950;SDS011;6540;50.858;7.232;2022-08-19T10:10:50;17.53;;;14.47;;
12950;SDS011;6540;50.858;7.232;2022-08-19T10:13:18;16.37;;;14.07;;
12950;SDS011;6540;50.858;7.232;2022-08-19T10:15:50;15.77;;;13.23;;
12950;SDS011;6540;50.858;7.232;2022-08-19T10:18:17;21.70;;;16.80;;
12950;SDS011;6540;50.858;7.232;2022-08-19T10:20:44;17.83;;;14.40;;
12950;SDS011;6540;50.858;7.232;2022-08-19T10:23:11;25.60;;;19.33;;
12950;SDS011;6540;50.858;7.232;2022-08-19T10:25:37;23.83;;;19.50;;
12950;SDS011;6540;50.858;7.232;2022-08-19T10:28:03;23.23;;;18.23;;
12950;SDS011;6540;50.858;7.232;2022-08-19T10:30:29;24.87;;;20.30;;
12950;SDS011;6540;50.858;7.232;2022-08-19T10:32:54;24.07;;;18.70;;
12950;SDS011;6540;50.858;7.232;2022-08-19T10:35:20;21.63;;;18.73;;
12950;SDS011;6540;50.858;7.232;2022-08-19T10:37:45;22.07;;;18.40;;
12950;SDS011;6540;50.858;7.232;2022-08-19T10:40:11;22.33;;;17.50;;
12950;SDS011;6540;50.858;7.232;2022-08-19T10:42:37;25.80;;;19.97;;
12950;SDS011;6540;50.858;7.232;2022-08-19T10:45:03;24.87;;;20.37;;
12950;SDS011;6540;50.858;7.232;2022-08-19T10:47:31;21.97;;;17.87;;
12950;SDS011;6540;50.858;7.232;2022-08-19T10:49:57;21.07;;;16.60;;
12950;SDS011;6540;50.858;7.232;2022-08-19T10:52:45;22.70;;;17.57;;
12950;SDS011;6540;50.858;7.232;2022-08-19T10:55:12;24.40;;;16.60;;
12950;SDS011;6540;50.858;7.232;2022-08-19T10:57:55;21.57;;;17.97;;
12950;SDS011;6540;50.858;7.232;2022-08-19T11:00:22;20.30;;;18.03;;
12950;SDS011;6540;50.858;7.232;2022-08-19T11:02:48;23.00;;;17.83;;
12950;SDS011;6540;50.858;7.232;2022-08-19T11:05:14;11.47;;;9.67;;
12950;SDS011;6540;50.858;7.232;2022-08-19T11:07:41;20.13;;;16.03;;
12950;SDS011;6540;50.858;7.232;2022-08-19T11:10:08;19.43;;;14.03;;
12950;SDS011;6540;50.858;7.232;2022-08-19T11:12:36;15.17;;;13.63;;
12950;SDS011;6540;50.858;7.232;2022-08-19T11:15:04;16.50;;;12.43;;
12950;SDS011;6540;50.858;7.232;2022-08-19T11:17:34;12.63;;;11.17;;
12950;SDS011;6540;50.858;7.232;2022-08-19T11:20:01;14.20;;;10.90;;
12950;SDS011;6540;50.858;7.232;2022-08-19T11:22:28;14.97;;;13.33;;
12950;SDS011;6540;50.858;7.232;2022-08-19T11:24:53;17.07;;;14.33;;
12950;SDS011;6540;50.858;7.232;2022-08-19T11:27:20;15.20;;;13.60;;
12950;SDS011;6540;50.858;7.232;2022-08-19T11:29:46;15.97;;;10.97;;
12950;SDS011;6540;50.858;7.232;2022-08-19T11:32:15;13.70;;;11.43;;
12950;SDS011;6540;50.858;7.232;2022-08-19T11:34:41;11.50;;;10.30;;
12950;SDS011;6540;50.858;7.232;2022-08-19T11:37:06;12.27;;;10.60;;
12950;SDS011;6540;50.858;7.232;2022-08-19T11:39:34;12.43;;;10.93;;
12950;SDS011;6540;50.858;7.232;2022-08-19T11:45:20;17.73;;;13.63;;
12950;SDS011;6540;50.858;7.232;2022-08-19T11:47:45;15.43;;;13.33;;
12950;SDS011;6540;50.858;7.232;2022-08-19T11:50:12;16.00;;;12.33;;
12950;SDS011;6540;50.858;7.232;2022-08-19T11:52:37;14.50;;;11.70;;
12950;SDS011;6540;50.858;7.232;2022-08-19T11:55:03;12.70;;;11.40;;
12950;SDS011;6540;50.858;7.232;2022-08-19T11:57:29;13.60;;;12.20;;
12950;SDS011;6540;50.858;7.232;2022-08-19T11:59:54;15.13;;;13.50;;
12950;SDS011;6540;50.858;7.232;2022-08-19T12:02:19;13.13;;;11.77;;
12950;SDS011;6540;50.858;7.232;2022-08-19T12:04:47;16.30;;;14.70;;
12950;SDS011;6540;50.858;7.232;2022-08-19T12:07:12;16.17;;;14.40;;
12950;SDS011;6540;50.858;7.232;2022-08-19T12:09:38;15.60;;;12.57;;
12950;SDS011;6540;50.858;7.232;2022-08-19T12:12:04;11.67;;;10.47;;
12950;SDS011;6540;50.858;7.232;2022-08-19T12:14:30;13.87;;;12.57;;
12950;SDS011;6540;50.858;7.232;2022-08-19T12:16:55;15.90;;;14.20;;
12950;SDS011;6540;50.858;7.232;2022-08-19T12:19:21;13.97;;;12.60;;
12950;SDS011;6540;50.858;7.232;2022-08-19T12:21:47;12.27;;;10.93;;
12950;SDS011;6540;50.858;7.232;2022-08-19T12:24:13;14.33;;;11.17;;
12950;SDS011;6540;50.858;7.232;2022-08-19T12:26:40;13.23;;;12.00;;
12950;SDS011;6540;50.858;7.232;2022-08-19T12:29:06;12.67;;;11.37;;
12950;SDS011;6540;50.858;7.232;2022-08-19T12:31:33;14.67;;;12.30;;
12950;SDS011;6540;50.858;7.232;2022-08-19T12:33:58;13.23;;;11.83;;
12950;SDS011;6540;50.858;7.232;2022-08-19T12:36:25;14.33;;;11.73;;
12950;SDS011;6540;50.858;7.232;2022-08-19T12:38:51;11.37;;;10.17;;
12950;SDS011;6540;50.858;7.232;2022-08-19T12:41:17;10.13;;;9.17;;
12950;SDS011;6540;50.858;7.232;2022-08-19T12:43:46;10.97;;;9.90;;
12950;SDS011;6540;50.858;7.232;2022-08-19T12:46:14;10.43;;;9.43;;
12950;SDS011;6540;50.858;7.232;2022-08-19T12:48:39;10.10;;;9.23;;
12950;SDS011;6540;50.858;7.232;2022-08-19T12:51:12;9.67;;;8.77;;
12950;SDS011;6540;50.858;7.232;2022-08-19T12:53:40;9.57;;;8.57;;
12950;SDS011;6540;50.858;7.232;2022-08-19T12:56:06;9.80;;;7.70;;
12950;SDS011;6540;50.858;7.232;2022-08-19T12:58:33;8.00;;;7.30;;
12950;SDS011;6540;50.858;7.232;2022-08-19T13:00:59;10.93;;;8.07;;
12950;SDS011;6540;50.858;7.232;2022-08-19T13:03:30;9.27;;;8.30;;
12950;SDS011;6540;50.858;7.232;2022-08-19T13:05:56;8.13;;;7.43;;
12950;SDS011;6540;50.858;7.232;2022-08-19T13:08:21;10.17;;;8.23;;
12950;SDS011;6540;50.858;7.232;2022-08-19T13:10:47;11.13;;;9.70;;
12950;SDS011;6540;50.858;7.232;2022-08-19T13:13:12;9.70;;;8.70;;
12950;SDS011;6540;50.858;7.232;2022-08-19T13:15:38;9.90;;;8.20;;
12950;SDS011;6540;50.858;7.232;2022-08-19T13:18:07;12.20;;;7.40;;
12950;SDS011;6540;50.858;7.232;2022-08-19T13:20:34;8.27;;;7.47;;
12950;SDS011;6540;50.858;7.232;2022-08-19T13:23:00;8.93;;;7.07;;
12950;SDS011;6540;50.858;7.232;2022-08-19T13:25:27;9.57;;;6.80;;
12950;SDS011;6540;50.858;7.232;2022-08-19T13:27:52;7.70;;;7.00;;
12950;SDS011;6540;50.858;7.232;2022-08-19T13:30:18;9.00;;;7.13;;
12950;SDS011;6540;50.858;7.232;2022-08-19T13:33:04;7.93;;;7.13;;
12950;SDS011;6540;50.858;7.232;2022-08-19T13:35:35;7.00;;;6.30;;
12950;SDS011;6540;50.858;7.232;2022-08-19T13:38:05;6.50;;;5.90;;
12950;SDS011;6540;50.858;7.232;2022-08-19T13:40:31;9.03;;;5.30;;
12950;SDS011;6540;50.858;7.232;2022-08-19T13:42:58;6.17;;;5.53;;
12950;SDS011;6540;50.858;7.232;2022-08-19T13:45:26;6.67;;;5.93;;
12950;SDS011;6540;50.858;7.232;2022-08-19T13:47:53;6.87;;;6.17;;
12950;SDS011;6540;50.858;7.232;2022-08-19T13:50:30;7.53;;;6.60;;
12950;SDS011;6540;50.858;7.232;2022-08-19T13:53:08;7.30;;;6.60;;
12950;SDS011;6540;50.858;7.232;2022-08-19T13:55:35;6.80;;;6.20;;
12950;SDS011;6540;50.858;7.232;2022-08-19T13:58:03;8.23;;;7.43;;
12950;SDS011;6540;50.858;7.232;2022-08-19T14:00:30;10.10;;;7.43;;
12950;SDS011;6540;50.858;7.232;2022-08-19T14:02:59;8.00;;;7.20;;
12950;SDS011;6540;50.858;7.232;2022-08-19T14:05:25;9.33;;;7.20;;
12950;SDS011;6540;50.858;7.232;2022-08-19T14:07:52;7.67;;;6.93;;
12950;SDS011;6540;50.858;7.232;2022-08-19T14:10:19;7.00;;;6.30;;
12950;SDS011;6540;50.858;7.232;2022-08-19T14:12:45;7.60;;;6.70;;
12950;SDS011;6540;50.858;7.232;2022-08-19T14:15:13;9.37;;;7.57;;
12950;SDS011;6540;50.858;7.232;2022-08-19T14:17:39;8.60;;;7.70;;
12950;SDS011;6540;50.858;7.232;2022-08-19T14:20:07;9.17;;;6.33;;
12950;SDS011;6540;50.858;7.232;2022-08-19T14:22:35;7.93;;;6.97;;
12950;SDS011;6540;50.858;7.232;2022-08-19T14:25:01;9.17;;;8.27;;
12950;SDS011;6540;50.858;7.232;2022-08-19T14:27:27;7.20;;;5.93;;
12950;SDS011;6540;50.858;7.232;2022-08-19T14:29:52;6.67;;;6.07;;
12950;SDS011;6540;50.858;7.232;2022-08-19T14:32:18;8.57;;;6.47;;
12950;SDS011;6540;50.858;7.232;2022-08-19T14:34:43;6.40;;;5.77;;
12950;SDS011;6540;50.858;7.232;2022-08-19T14:37:10;8.43;;;6.03;;
12950;SDS011;6540;50.858;7.232;2022-08-19T14:39:36;9.87;;;5.97;;
12950;SDS011;6540;50.858;7.232;2022-08-19T14:42:06;8.27;;;5.70;;
12950;SDS011;6540;50.858;7.232;2022-08-19T14:44:33;6.17;;;5.57;;
12950;SDS011;6540;50.858;7.232;2022-08-19T14:46:59;7.27;;;6.20;;
12950;SDS011;6540;50.858;7.232;2022-08-19T14:49:24;6.27;;;5.67;;
12950;SDS011;6540;50.858;7.232;2022-08-19T14:51:49;7.37;;;6.03;;
12950;SDS011;6540;50.858;7.232;2022-08-19T14:54:15;7.63;;;5.97;;
12950;SDS011;6540;50.858;7.232;2022-08-19T14:56:40;9.13;;;6.30;;